createdAt,value
2023-03-29T00:00:40.566Z,20.67
2023-03-29T00:01:40.566Z,20.67
2023-03-29T00:02:40.678Z,20.67
2023-03-29T00:03:40.646Z,20.67
2023-03-29T00:04:40.590Z,20.67
2023-03-29T00:05:40.546Z,20.67
2023-03-29T00:06:40.573Z,20.65
2023-03-29T00:07:40.532Z,20.66
2023-03-29T00:08:40.545Z,20.66
2023-03-29T00:09:40.557Z,20.67
2023-03-29T00:10:40.543Z,20.65
2023-03-29T00:11:40.585Z,20.67
2023-03-29T00:12:40.514Z,20.65
2023-03-29T00:13:40.506Z,20.66
2023-03-29T00:14:39.501Z,20.66
2023-03-29T00:15:40.502Z,20.67
2023-03-29T00:16:40.575Z,20.65
2023-03-29T00:17:40.555Z,20.66
2023-03-29T00:18:40.504Z,20.67
2023-03-29T00:19:40.511Z,20.65
2023-03-29T00:20:40.489Z,20.63
2023-03-29T00:21:39.492Z,20.62
2023-03-29T00:22:40.529Z,20.66
2023-03-29T00:23:40.491Z,20.66
2023-03-29T00:24:40.479Z,20.63
2023-03-29T00:25:40.475Z,20.66
2023-03-29T00:26:40.488Z,20.65
2023-03-29T00:27:40.484Z,20.63
2023-03-29T00:28:40.513Z,20.62
2023-03-29T00:29:40.478Z,20.63
2023-03-29T00:30:40.479Z,20.65
2023-03-29T00:31:40.484Z,20.60
2023-03-29T00:32:40.482Z,20.63
2023-03-29T00:33:40.467Z,20.63
2023-03-29T00:34:40.491Z,20.65
2023-03-29T00:35:40.483Z,20.63
2023-03-29T00:36:40.478Z,20.60
2023-03-29T00:37:40.451Z,20.63
2023-03-29T00:38:40.444Z,20.63
2023-03-29T00:39:40.433Z,20.63
2023-03-29T00:40:40.451Z,20.62
2023-03-29T00:41:39.428Z,20.60
2023-03-29T00:42:40.425Z,20.62
2023-03-29T00:43:40.432Z,20.60
2023-03-29T00:44:40.413Z,20.63
2023-03-29T00:45:40.395Z,20.62
2023-03-29T00:46:40.476Z,20.60
2023-03-29T00:47:39.411Z,20.59
2023-03-29T00:48:40.399Z,20.60
2023-03-29T00:49:40.413Z,20.57
2023-03-29T00:50:40.412Z,20.56
2023-03-29T00:51:40.399Z,20.60
2023-03-29T00:52:40.427Z,20.62
2023-03-29T00:53:39.404Z,20.57
2023-03-29T00:54:40.413Z,20.59
2023-03-29T00:55:40.396Z,20.57
2023-03-29T00:56:40.550Z,20.60
2023-03-29T00:57:40.379Z,20.59
2023-03-29T00:58:40.455Z,20.56
2023-03-29T00:59:40.385Z,20.62
2023-03-29T01:00:40.424Z,20.59
2023-03-29T01:01:40.463Z,20.56
2023-03-29T01:02:40.558Z,20.59
2023-03-29T01:03:39.468Z,20.59
2023-03-29T01:04:39.408Z,20.56
2023-03-29T01:05:40.477Z,20.53
2023-03-29T01:06:40.443Z,20.56
2023-03-29T01:07:39.411Z,20.55
2023-03-29T01:08:39.414Z,20.57
2023-03-29T01:09:40.428Z,20.57
2023-03-29T01:10:40.426Z,20.59
2023-03-29T01:11:40.446Z,20.56
2023-03-29T01:12:40.526Z,20.56
2023-03-29T01:13:39.450Z,20.56
2023-03-29T01:14:40.440Z,20.55
2023-03-29T01:15:40.470Z,20.55
2023-03-29T01:16:40.493Z,20.56
2023-03-29T01:17:40.559Z,20.56
2023-03-29T01:18:39.495Z,20.55
2023-03-29T01:19:40.489Z,20.56
2023-03-29T01:20:40.491Z,20.56
2023-03-29T01:21:40.493Z,20.52
2023-03-29T01:22:40.490Z,20.55
2023-03-29T01:23:40.523Z,20.55
2023-03-29T01:24:40.506Z,20.55
2023-03-29T01:25:40.495Z,20.52
2023-03-29T01:26:40.516Z,20.57
2023-03-29T01:27:40.503Z,20.55
2023-03-29T01:28:40.511Z,20.55
2023-03-29T01:29:40.499Z,20.55
2023-03-29T01:30:40.504Z,20.52
2023-03-29T01:31:40.568Z,20.53
2023-03-29T01:32:39.513Z,20.55
2023-03-29T01:33:40.526Z,20.53
2023-03-29T01:34:40.508Z,20.56
2023-03-29T01:35:40.547Z,20.53
2023-03-29T01:36:40.529Z,20.55
2023-03-29T01:37:39.542Z,20.50
2023-03-29T01:38:40.564Z,20.50
2023-03-29T01:39:40.534Z,20.50
2023-03-29T01:40:40.532Z,20.53
2023-03-29T01:41:40.592Z,20.50
2023-03-29T01:42:39.575Z,20.52
2023-03-29T01:43:40.582Z,20.49
2023-03-29T01:44:40.566Z,20.50
2023-03-29T01:45:40.646Z,20.53
2023-03-29T01:46:40.576Z,20.48
2023-03-29T01:47:40.605Z,20.49
2023-03-29T01:48:39.578Z,20.49
2023-03-29T01:49:40.588Z,20.53
2023-03-29T01:50:40.619Z,20.52
2023-03-29T01:51:39.589Z,20.55
2023-03-29T01:52:40.587Z,20.53
2023-03-29T01:53:40.589Z,20.53
2023-03-29T01:54:40.616Z,20.53
2023-03-29T01:55:39.565Z,20.59
2023-03-29T01:56:40.603Z,20.65
2023-03-29T01:57:40.639Z,20.59
2023-03-29T01:58:40.673Z,20.66
2023-03-29T01:59:40.704Z,20.66
2023-03-29T02:00:40.753Z,20.73
2023-03-29T02:01:40.888Z,20.73
2023-03-29T02:02:40.934Z,20.72
2023-03-29T02:03:39.953Z,20.77
2023-03-29T02:04:40.952Z,20.84
2023-03-29T02:05:41.007Z,20.80
2023-03-29T02:06:41.041Z,20.82
2023-03-29T02:07:41.056Z,20.86
2023-03-29T02:08:41.095Z,20.95
2023-03-29T02:09:41.164Z,20.98
2023-03-29T02:10:41.148Z,20.98
2023-03-29T02:11:41.170Z,21.02
2023-03-29T02:12:41.198Z,20.98
2023-03-29T02:13:41.205Z,21.07
2023-03-29T02:14:41.248Z,21.05
2023-03-29T02:15:41.295Z,21.11
2023-03-29T02:16:41.227Z,21.11
2023-03-29T02:17:41.237Z,21.15
2023-03-29T02:18:41.247Z,21.14
2023-03-29T02:19:40.248Z,21.18
2023-03-29T02:20:40.246Z,21.21
2023-03-29T02:21:41.267Z,21.18
2023-03-29T02:22:41.255Z,21.22
2023-03-29T02:23:41.245Z,21.25
2023-03-29T02:24:40.248Z,21.24
2023-03-29T02:25:41.247Z,21.24
2023-03-29T02:26:41.239Z,21.31
2023-03-29T02:27:40.267Z,21.32
2023-03-29T02:28:41.229Z,21.34
2023-03-29T02:29:41.278Z,21.38
2023-03-29T02:30:40.293Z,21.41
2023-03-29T02:31:41.417Z,21.39
2023-03-29T02:32:41.355Z,21.42
2023-03-29T02:33:41.419Z,21.42
2023-03-29T02:34:41.433Z,21.45
2023-03-29T02:35:40.507Z,21.46
2023-03-29T02:36:41.548Z,21.49
2023-03-29T02:37:41.608Z,21.48
2023-03-29T02:38:41.657Z,21.55
2023-03-29T02:39:41.768Z,21.53
2023-03-29T02:40:41.781Z,21.55
2023-03-29T02:41:41.863Z,21.57
2023-03-29T02:42:41.951Z,21.56
2023-03-29T02:43:42.082Z,21.60
2023-03-29T02:44:42.073Z,21.65
2023-03-29T02:45:42.111Z,21.60
2023-03-29T02:46:41.222Z,21.60
2023-03-29T02:47:42.226Z,21.65
2023-03-29T02:48:42.379Z,21.63
2023-03-29T02:49:42.351Z,21.65
2023-03-29T02:50:42.421Z,21.69
2023-03-29T02:51:41.468Z,21.69
2023-03-29T02:52:42.529Z,21.70
2023-03-29T02:53:42.567Z,21.73
2023-03-29T02:54:42.698Z,21.74
2023-03-29T02:55:42.686Z,21.76
2023-03-29T02:56:42.769Z,21.74
2023-03-29T02:57:42.788Z,21.80
2023-03-29T02:58:42.833Z,21.77
2023-03-29T02:59:41.891Z,21.79
2023-03-29T03:00:43.072Z,21.83
2023-03-29T03:01:42.059Z,21.80
2023-03-29T03:02:43.219Z,21.84
2023-03-29T03:03:42.122Z,21.82
2023-03-29T03:04:43.110Z,21.83
2023-03-29T03:05:42.336Z,21.86
2023-03-29T03:06:43.197Z,21.83
2023-03-29T03:07:43.263Z,21.87
2023-03-29T03:08:43.297Z,21.91
2023-03-29T03:09:43.339Z,21.89
2023-03-29T03:10:43.395Z,21.90
2023-03-29T03:11:43.445Z,21.91
2023-03-29T03:12:43.467Z,21.89
2023-03-29T03:13:43.520Z,21.91
2023-03-29T03:14:42.564Z,21.91
2023-03-29T03:15:43.626Z,21.91
2023-03-29T03:16:42.757Z,21.90
2023-03-29T03:17:43.718Z,21.93
2023-03-29T03:18:43.798Z,21.93
2023-03-29T03:19:43.782Z,21.91
2023-03-29T03:20:43.818Z,21.93
2023-03-29T03:21:42.870Z,21.97
2023-03-29T03:22:42.914Z,21.97
2023-03-29T03:23:43.944Z,21.99
2023-03-29T03:24:43.985Z,22.00
2023-03-29T03:25:44.081Z,21.96
2023-03-29T03:26:44.082Z,21.99
2023-03-29T03:27:44.148Z,22.01
2023-03-29T03:28:44.192Z,22.00
2023-03-29T03:29:44.234Z,22.04
2023-03-29T03:30:44.290Z,22.01
2023-03-29T03:31:44.411Z,21.99
2023-03-29T03:32:44.402Z,22.00
2023-03-29T03:33:44.436Z,22.01
2023-03-29T03:34:44.496Z,22.05
2023-03-29T03:35:44.586Z,22.01
2023-03-29T03:36:44.588Z,22.04
2023-03-29T03:37:43.646Z,22.05
2023-03-29T03:38:43.678Z,22.04
2023-03-29T03:39:44.734Z,22.07
2023-03-29T03:40:44.797Z,22.03
2023-03-29T03:41:44.830Z,22.01
2023-03-29T03:42:44.922Z,22.03
2023-03-29T03:43:44.949Z,22.03
2023-03-29T03:44:44.975Z,22.00
2023-03-29T03:45:45.047Z,22.05
2023-03-29T03:46:45.070Z,22.08
2023-03-29T03:47:45.135Z,22.03
2023-03-29T03:48:44.222Z,22.05
2023-03-29T03:49:44.229Z,22.10
2023-03-29T03:50:44.298Z,22.05
2023-03-29T03:51:45.350Z,22.07
2023-03-29T03:52:45.382Z,22.05
2023-03-29T03:53:45.426Z,22.03
2023-03-29T03:54:45.493Z,22.10
2023-03-29T03:55:45.565Z,22.07
2023-03-29T03:56:45.601Z,22.05
2023-03-29T03:57:44.639Z,22.08
2023-03-29T03:58:45.708Z,22.10
2023-03-29T03:59:44.750Z,22.07
2023-03-29T04:00:45.819Z,22.08
2023-03-29T04:01:45.844Z,22.07
2023-03-29T04:02:45.030Z,22.05
2023-03-29T04:03:46.082Z,22.11
2023-03-29T04:04:46.021Z,22.11
2023-03-29T04:05:46.080Z,22.08
2023-03-29T04:06:46.198Z,22.05
2023-03-29T04:07:46.191Z,22.04
2023-03-29T04:08:46.234Z,22.04
2023-03-29T04:09:46.306Z,22.07
2023-03-29T04:10:46.351Z,22.05
2023-03-29T04:11:46.417Z,22.07
2023-03-29T04:12:46.499Z,22.07
2023-03-29T04:13:46.544Z,22.08
2023-03-29T04:14:46.583Z,22.05
2023-03-29T04:15:45.690Z,22.05
2023-03-29T04:16:46.696Z,22.03
2023-03-29T04:17:46.783Z,22.05
2023-03-29T04:18:46.847Z,22.07
2023-03-29T04:19:46.866Z,22.05
2023-03-29T04:20:46.938Z,22.03
2023-03-29T04:21:46.969Z,22.03
2023-03-29T04:22:47.057Z,22.04
2023-03-29T04:23:47.079Z,22.04
2023-03-29T04:24:47.162Z,22.05
2023-03-29T04:25:47.218Z,22.05
2023-03-29T04:26:46.253Z,22.04
2023-03-29T04:27:46.341Z,22.04
2023-03-29T04:28:46.386Z,21.99
2023-03-29T04:29:47.478Z,22.04
2023-03-29T04:30:47.546Z,22.03
2023-03-29T04:31:46.587Z,22.05
2023-03-29T04:32:46.645Z,22.05
2023-03-29T04:33:47.694Z,22.04
2023-03-29T04:34:47.720Z,22.03
2023-03-29T04:35:47.888Z,22.05
2023-03-29T04:36:47.830Z,22.08
2023-03-29T04:37:46.878Z,22.05
2023-03-29T04:38:48.172Z,22.08
2023-03-29T04:39:46.973Z,22.05
2023-03-29T04:40:48.038Z,22.08
2023-03-29T04:41:48.086Z,22.08
2023-03-29T04:42:48.118Z,22.11
2023-03-29T04:43:48.213Z,22.10
2023-03-29T04:44:48.261Z,22.08
2023-03-29T04:45:47.290Z,22.07
2023-03-29T04:46:48.429Z,22.07
2023-03-29T04:47:48.548Z,22.10
2023-03-29T04:48:47.466Z,22.10
2023-03-29T04:49:47.626Z,22.10
2023-03-29T04:50:48.578Z,22.10
2023-03-29T04:51:48.628Z,22.07
2023-03-29T04:52:47.702Z,22.08
2023-03-29T04:53:48.732Z,22.11
2023-03-29T04:54:48.801Z,22.10
2023-03-29T04:55:48.816Z,22.14
2023-03-29T04:56:48.920Z,22.14
2023-03-29T04:57:48.914Z,22.14
2023-03-29T04:58:47.973Z,22.15
2023-03-29T04:59:49.001Z,22.17
2023-03-29T05:00:49.067Z,22.12
2023-03-29T05:01:49.148Z,22.10
2023-03-29T05:02:49.168Z,22.11
2023-03-29T05:03:49.237Z,22.10
2023-03-29T05:04:49.254Z,22.19
2023-03-29T05:05:49.279Z,22.15
2023-03-29T05:06:49.430Z,22.18
2023-03-29T05:12:48.518Z,22.18
2023-03-29T05:13:48.741Z,22.19
2023-03-29T05:14:48.698Z,22.11
2023-03-29T05:15:49.721Z,22.14
2023-03-29T05:16:49.712Z,22.14
2023-03-29T05:17:49.813Z,22.11
2023-03-29T05:18:49.771Z,22.17
2023-03-29T05:19:50.055Z,22.17
2023-03-29T05:20:49.994Z,22.10
2023-03-29T05:21:50.137Z,22.15
2023-03-29T05:22:50.106Z,22.15
2023-03-29T05:23:49.987Z,22.17
2023-03-29T05:24:50.087Z,22.17
2023-03-29T05:25:50.114Z,22.17
2023-03-29T05:28:49.964Z,22.25
2023-03-29T05:30:49.218Z,22.18
2023-03-29T05:31:50.284Z,22.19
2023-03-29T05:32:50.357Z,22.27
2023-03-29T05:33:50.306Z,22.32
2023-03-29T05:34:50.387Z,22.24
2023-03-29T05:35:50.390Z,22.35
2023-03-29T05:36:50.383Z,22.31
2023-03-29T05:37:50.457Z,22.32
2023-03-29T05:38:50.429Z,22.31
2023-03-29T05:41:49.514Z,22.44
2023-03-29T05:42:50.676Z,22.49
2023-03-29T05:44:49.542Z,22.46
2023-03-29T05:45:50.565Z,22.48
2023-03-29T05:46:50.915Z,22.49
2023-03-29T05:49:50.723Z,22.58
2023-03-29T05:50:51.004Z,22.62
2023-03-29T05:51:56.945Z,22.69
2023-03-29T05:52:50.572Z,22.64
2023-03-29T05:54:49.569Z,22.73
2023-03-29T05:55:50.533Z,22.77
2023-03-29T05:59:49.507Z,22.93
2023-03-29T06:00:50.606Z,22.91
2023-03-29T06:01:50.894Z,22.97
2023-03-29T06:05:49.765Z,22.97
2023-03-29T06:06:50.464Z,22.96
2023-03-29T06:07:50.460Z,22.94
2023-03-29T06:08:50.450Z,22.94
2023-03-29T06:13:49.422Z,22.79
2023-03-29T06:14:50.438Z,22.85
2023-03-29T06:15:50.403Z,22.77
2023-03-29T06:17:49.482Z,22.77
2023-03-29T06:18:50.395Z,22.79
2023-03-29T06:19:50.386Z,22.76
2023-03-29T06:21:49.377Z,22.77
2023-03-29T06:22:50.356Z,22.79
2023-03-29T06:25:49.337Z,22.83
2023-03-29T06:26:50.355Z,22.80
2023-03-29T06:28:52.094Z,22.80
2023-03-29T06:29:50.308Z,22.80
2023-03-29T06:30:50.356Z,22.80
2023-03-29T06:32:49.343Z,22.83
2023-03-29T06:33:50.320Z,22.83
2023-03-29T06:35:49.338Z,22.83
2023-03-29T06:36:50.264Z,22.83
2023-03-29T06:37:50.246Z,22.82
2023-03-29T06:38:50.262Z,22.87
2023-03-29T06:39:52.792Z,22.85
2023-03-29T06:43:49.199Z,22.90
2023-03-29T06:44:50.192Z,22.91
2023-03-29T06:45:50.230Z,22.91
2023-03-29T06:49:49.181Z,22.93
2023-03-29T06:50:50.140Z,22.91
2023-03-29T06:51:50.452Z,22.96
2023-03-29T06:56:49.432Z,22.80
2023-03-29T06:57:50.267Z,22.74
2023-03-29T06:58:50.093Z,22.73
2023-03-29T06:59:50.119Z,22.69
2023-03-29T07:00:49.094Z,22.70
2023-03-29T07:01:50.130Z,22.73
2023-03-29T07:02:50.193Z,22.77
2023-03-29T07:03:50.129Z,22.76
2023-03-29T07:06:49.062Z,22.80
2023-03-29T07:07:50.066Z,22.85
2023-03-29T07:09:49.004Z,22.85
2023-03-29T07:10:50.023Z,22.87
2023-03-29T07:11:50.037Z,22.86
2023-03-29T07:16:49.043Z,22.89
2023-03-29T07:17:50.048Z,22.89
2023-03-29T07:18:50.036Z,22.91
2023-03-29T07:20:48.929Z,22.91
2023-03-29T07:21:49.941Z,22.90
2023-03-29T07:24:48.897Z,22.91
2023-03-29T07:25:49.909Z,22.94
2023-03-29T07:27:03.334Z,22.93
2023-03-29T07:31:48.834Z,22.94
2023-03-29T07:32:49.949Z,22.94
2023-03-29T07:33:49.907Z,22.93
2023-03-29T07:34:49.844Z,22.91
2023-03-29T07:38:48.789Z,22.94
2023-03-29T07:39:49.782Z,22.93
2023-03-29T07:40:49.770Z,22.94
2023-03-29T07:46:48.799Z,22.72
2023-03-29T07:47:50.012Z,22.86
2023-03-29T07:49:48.699Z,22.91
2023-03-29T07:50:49.720Z,22.97
2023-03-29T07:55:48.657Z,23.21
2023-03-29T07:56:49.731Z,23.24
2023-03-29T07:58:48.638Z,23.37
2023-03-29T07:59:48.644Z,23.38
2023-03-29T08:04:48.611Z,23.03
2023-03-29T08:09:48.568Z,23.19
2023-03-29T08:10:49.572Z,23.24
2023-03-29T08:11:49.542Z,23.28
2023-03-29T08:12:49.541Z,23.35
2023-03-29T08:15:48.555Z,23.49
2023-03-29T08:16:48.544Z,23.51
2023-03-29T08:17:48.577Z,23.55
2023-03-29T08:18:49.525Z,23.61
2023-03-29T08:19:51.012Z,23.63
2023-03-29T08:23:48.504Z,23.70
2023-03-29T08:24:49.513Z,23.73
2023-03-29T08:25:48.520Z,23.89
2023-03-29T08:26:49.507Z,23.90
2023-03-29T08:27:49.522Z,23.93
2023-03-29T08:28:49.487Z,23.99
2023-03-29T08:29:49.500Z,23.96
2023-03-29T08:30:49.542Z,24.06
2023-03-29T08:31:49.453Z,24.11
2023-03-29T08:35:48.514Z,24.17
2023-03-29T08:36:49.423Z,24.11
2023-03-29T08:37:49.416Z,24.15
2023-03-29T08:38:48.438Z,24.25
2023-03-29T08:39:49.409Z,24.25
2023-03-29T08:43:48.383Z,24.21
2023-03-29T08:44:49.369Z,24.15
2023-03-29T08:45:50.915Z,24.25
2023-03-29T08:46:49.397Z,24.24
2023-03-29T08:47:49.538Z,24.20
2023-03-29T08:49:48.346Z,24.28
2023-03-29T08:50:49.322Z,24.30
2023-03-29T08:51:49.352Z,24.18
2023-03-29T08:55:48.301Z,24.01
2023-03-29T08:56:49.316Z,24.13
2023-03-29T08:57:49.533Z,24.13
2023-03-29T08:59:48.276Z,24.21
2023-03-29T09:00:49.258Z,24.06
2023-03-29T09:01:49.336Z,23.99
2023-03-29T09:05:48.245Z,22.85
2023-03-29T09:06:48.225Z,22.55
2023-03-29T09:10:48.220Z,21.65
2023-03-29T09:11:49.194Z,21.45
2023-03-29T09:12:49.252Z,21.35
2023-03-29T09:13:49.171Z,21.15
2023-03-29T09:17:49.589Z,20.82
2023-03-29T09:18:48.149Z,20.79
2023-03-29T09:19:49.261Z,20.72
2023-03-29T09:20:49.132Z,20.65
2023-03-29T09:22:48.102Z,20.55
2023-03-29T09:23:49.085Z,20.46
2023-03-29T09:24:49.082Z,20.43
2023-03-29T09:28:48.125Z,20.39
2023-03-29T09:29:48.051Z,20.33
2023-03-29T09:32:48.129Z,20.87
2023-03-29T09:33:49.045Z,21.12
2023-03-29T09:34:49.075Z,21.38
2023-03-29T09:35:49.129Z,21.56
2023-03-29T09:36:49.168Z,21.79
2023-03-29T09:38:48.249Z,22.14
2023-03-29T09:39:49.279Z,22.32
2023-03-29T09:40:49.301Z,22.41
2023-03-29T09:41:49.330Z,22.55
2023-03-29T09:42:49.364Z,22.64
2023-03-29T09:43:49.356Z,22.80
2023-03-29T09:47:48.505Z,23.01
2023-03-29T09:48:49.371Z,23.00
2023-03-29T09:49:49.397Z,23.01
2023-03-29T09:50:49.464Z,22.56
2023-03-29T09:51:48.467Z,22.45
2023-03-29T09:52:49.982Z,22.44
2023-03-29T09:54:48.636Z,22.56
2023-03-29T09:55:50.227Z,22.64
2023-03-29T09:56:49.739Z,22.67
2023-03-29T09:57:48.679Z,22.80
2023-03-29T09:58:49.718Z,22.90
2023-03-29T09:59:49.734Z,23.00
2023-03-29T10:00:49.838Z,23.06
2023-03-29T10:01:49.989Z,23.13
2023-03-29T10:02:49.911Z,23.17
2023-03-29T10:03:49.971Z,23.22
2023-03-29T10:04:49.960Z,23.25
2023-03-29T10:05:50.005Z,23.35
2023-03-29T10:06:50.002Z,23.37
2023-03-29T10:07:50.028Z,23.41
2023-03-29T10:08:50.070Z,23.49
2023-03-29T10:09:50.076Z,23.48
2023-03-29T10:13:49.105Z,23.66
2023-03-29T10:14:53.050Z,23.65
2023-03-29T10:17:49.119Z,23.74
2023-03-29T10:18:50.157Z,23.84
2023-03-29T10:20:49.089Z,23.61
2023-03-29T10:21:50.080Z,23.70
2023-03-29T10:22:50.080Z,23.70
2023-03-29T10:23:50.057Z,23.74
2023-03-29T10:26:49.017Z,23.95
2023-03-29T10:27:49.036Z,24.00
2023-03-29T10:28:50.030Z,24.03
2023-03-29T10:29:50.038Z,24.00
2023-03-29T10:30:50.043Z,24.03
2023-03-29T10:33:49.030Z,23.99
2023-03-29T10:34:50.002Z,24.06
2023-03-29T10:35:50.052Z,23.96
2023-03-29T10:37:48.969Z,24.10
2023-03-29T10:38:50.277Z,24.10
2023-03-29T10:39:49.317Z,24.15
2023-03-29T10:42:49.538Z,24.06
2023-03-29T10:43:51.188Z,24.08
2023-03-29T10:45:51.742Z,24.20
2023-03-29T10:47:49.118Z,24.23
2023-03-29T10:48:50.402Z,24.23
2023-03-29T10:51:49.235Z,24.11
2023-03-29T10:52:50.381Z,24.08
2023-03-29T10:53:50.737Z,24.06
2023-03-29T10:54:50.418Z,24.03
2023-03-29T10:57:49.500Z,23.95
2023-03-29T10:58:50.255Z,23.91
2023-03-29T10:59:50.189Z,23.91
2023-03-29T11:03:49.600Z,23.80
2023-03-29T11:04:50.375Z,23.76
2023-03-29T11:05:50.984Z,23.79
2023-03-29T11:06:50.899Z,23.73
2023-03-29T11:07:50.417Z,23.68
2023-03-29T11:08:51.038Z,23.69
2023-03-29T11:09:50.534Z,23.66
2023-03-29T11:10:51.275Z,23.63
2023-03-29T11:14:50.257Z,23.59
2023-03-29T11:15:51.407Z,23.55
2023-03-29T11:16:50.936Z,23.55
2023-03-29T11:17:51.542Z,23.53
2023-03-29T11:18:51.354Z,23.53
2023-03-29T11:21:49.624Z,23.51
2023-03-29T11:22:51.633Z,23.48
2023-03-29T11:23:51.942Z,23.48
2023-03-29T11:25:50.195Z,23.45
2023-03-29T11:27:50.100Z,23.45
2023-03-29T11:28:51.998Z,23.45
2023-03-29T11:29:51.312Z,23.34
2023-03-29T11:30:50.873Z,23.40
2023-03-29T11:31:50.120Z,23.37
2023-03-29T11:32:50.728Z,23.31
2023-03-29T11:33:49.965Z,23.38
2023-03-29T11:34:51.375Z,23.32
2023-03-29T11:35:51.322Z,23.34
2023-03-29T11:38:51.699Z,23.31
2023-03-29T11:40:50.491Z,23.25
2023-03-29T11:41:51.032Z,23.28
2023-03-29T11:42:51.847Z,23.28
2023-03-29T11:45:50.134Z,23.28
2023-03-29T11:46:51.368Z,23.25
2023-03-29T11:47:51.008Z,23.27
2023-03-29T11:48:51.151Z,23.19
2023-03-29T11:49:51.616Z,23.24
2023-03-29T11:50:51.779Z,23.24
2023-03-29T11:51:51.788Z,23.22
2023-03-29T11:53:50.280Z,23.22
2023-03-29T11:54:51.951Z,23.24
2023-03-29T11:57:50.865Z,23.19
2023-03-29T11:58:52.073Z,23.19
2023-03-29T11:59:52.175Z,23.21
2023-03-29T12:01:50.607Z,23.19
2023-03-29T12:02:50.986Z,23.24
2023-03-29T12:03:51.153Z,23.10
2023-03-29T12:04:51.395Z,23.11
2023-03-29T12:05:50.582Z,22.85
2023-03-29T12:06:51.464Z,22.86
2023-03-29T12:07:51.876Z,22.82
2023-03-29T12:11:50.539Z,23.04
2023-03-29T12:12:50.736Z,23.07
2023-03-29T12:13:51.668Z,23.07
2023-03-29T12:14:51.719Z,23.19
2023-03-29T12:17:50.710Z,23.21
2023-03-29T12:18:51.644Z,23.17
2023-03-29T12:23:51.162Z,23.49
2023-03-29T12:24:52.529Z,23.46
2023-03-29T12:25:52.290Z,23.44
2023-03-29T12:26:52.872Z,23.48
2023-03-29T12:36:51.942Z,23.76
2023-03-29T12:42:52.185Z,23.90
2023-03-29T12:43:52.943Z,23.87
2023-03-29T12:44:52.867Z,23.89
2023-03-29T12:46:52.414Z,23.77
2023-03-29T12:47:53.374Z,23.90
2023-03-29T12:48:53.553Z,23.89
2023-03-29T12:49:53.967Z,23.83
2023-03-29T12:52:52.963Z,23.95
2023-03-29T12:57:52.573Z,24.04
2023-03-29T12:58:53.380Z,24.03
2023-03-29T12:59:53.915Z,24.13
2023-03-29T13:00:54.146Z,24.14
2023-03-29T13:05:52.402Z,24.18
2023-03-29T13:06:54.154Z,24.17
2023-03-29T13:07:53.379Z,24.25
2023-03-29T13:08:54.064Z,24.25
2023-03-29T13:11:52.520Z,24.27
2023-03-29T13:12:53.519Z,24.23
2023-03-29T13:13:53.508Z,24.28
2023-03-29T13:17:52.590Z,24.35
2023-03-29T13:18:53.570Z,24.34
2023-03-29T13:19:53.569Z,24.36
2023-03-29T13:20:53.581Z,24.39
2023-03-29T13:24:52.825Z,24.47
2023-03-29T13:25:53.765Z,24.45
2023-03-29T13:27:52.757Z,24.51
2023-03-29T13:28:54.620Z,24.52
2023-03-29T13:29:53.669Z,24.52
2023-03-29T13:30:53.720Z,24.55
2023-03-29T13:36:52.722Z,24.58
2023-03-29T13:37:53.668Z,24.31
2023-03-29T13:38:53.645Z,24.48
2023-03-29T13:41:52.599Z,24.51
2023-03-29T13:42:53.688Z,24.55
2023-03-29T13:43:53.698Z,24.62
2023-03-29T13:48:52.710Z,24.49
2023-03-29T13:49:53.554Z,24.47
2023-03-29T13:50:53.517Z,24.47
2023-03-29T13:51:53.609Z,24.42
2023-03-29T13:54:52.589Z,24.32
2023-03-29T13:56:52.541Z,24.28
2023-03-29T13:57:53.529Z,24.23
2023-03-29T13:58:53.509Z,24.23
2023-03-29T14:03:52.446Z,24.07
2023-03-29T14:04:53.470Z,24.01
2023-03-29T14:06:52.404Z,24.01
2023-03-29T14:07:53.434Z,23.96
2023-03-29T14:08:53.424Z,23.91
2023-03-29T14:09:53.438Z,23.91
2023-03-29T14:13:52.601Z,23.87
2023-03-29T14:14:59.304Z,23.81
2023-03-29T14:15:53.627Z,23.83
2023-03-29T14:18:52.601Z,23.81
2023-03-29T14:23:52.556Z,23.81
2023-03-29T14:24:53.571Z,23.81
2023-03-29T14:25:53.569Z,23.81
2023-03-29T14:30:52.609Z,23.81
2023-03-29T14:31:53.595Z,23.83
2023-03-29T14:32:52.600Z,23.86
2023-03-29T14:33:53.571Z,23.86
2023-03-29T14:38:52.473Z,23.89
2023-03-29T14:39:53.478Z,23.87
2023-03-29T14:40:53.485Z,23.89
2023-03-29T14:43:52.672Z,23.87
2023-03-29T14:44:53.717Z,23.90
2023-03-29T14:45:53.799Z,23.90
2023-03-29T14:46:53.861Z,23.90
2023-03-29T14:47:53.948Z,23.90
2023-03-29T14:48:53.972Z,23.86
2023-03-29T14:49:54.039Z,23.89
2023-03-29T14:53:53.264Z,23.87
2023-03-29T14:56:53.459Z,23.83
2023-03-29T14:57:54.504Z,23.84
2023-03-29T14:58:54.576Z,23.84
2023-03-29T14:59:54.609Z,23.83
2023-03-29T15:00:54.705Z,23.80
2023-03-29T15:04:53.928Z,23.83
2023-03-29T15:05:53.970Z,23.81
2023-03-29T15:06:55.094Z,23.81
2023-03-29T15:07:55.086Z,23.79
2023-03-29T15:09:05.294Z,23.80
2023-03-29T15:09:55.146Z,23.80
2023-03-29T15:16:54.098Z,23.73
2023-03-29T15:17:55.100Z,23.70
2023-03-29T15:18:54.114Z,23.70
2023-03-29T15:19:54.064Z,23.70
2023-03-29T15:21:54.075Z,23.66
2023-03-29T15:22:55.071Z,23.66
2023-03-29T15:23:55.079Z,23.69
2023-03-29T15:25:54.062Z,23.66
2023-03-29T15:27:54.020Z,23.63
2023-03-29T15:28:55.029Z,23.59
2023-03-29T15:29:55.013Z,23.56
2023-03-29T15:32:13.381Z,23.51
2023-03-29T15:33:14.258Z,23.55
2023-03-29T15:34:14.225Z,23.52
2023-03-29T15:35:14.193Z,23.51
2023-03-29T15:36:14.185Z,23.52
2023-03-29T15:37:14.106Z,23.51
2023-03-29T15:38:13.075Z,23.44
2023-03-29T15:39:14.044Z,23.46
2023-03-29T15:40:16.183Z,23.46
2023-03-29T15:41:14.679Z,23.44
2023-03-29T15:42:13.999Z,23.44
2023-03-29T15:43:14.153Z,23.41
2023-03-29T15:44:13.978Z,23.42
2023-03-29T15:45:13.004Z,23.41
2023-03-29T15:46:14.270Z,23.41
2023-03-29T15:47:12.975Z,23.38
2023-03-29T15:48:13.972Z,23.40
2023-03-29T15:49:13.979Z,23.40
2023-03-29T15:50:13.977Z,23.37
2023-03-29T15:51:13.969Z,23.31
2023-03-29T15:52:13.917Z,23.34
2023-03-29T15:53:15.735Z,23.31
2023-03-29T15:54:14.182Z,23.32
2023-03-29T15:55:13.993Z,23.29
2023-03-29T15:56:14.042Z,23.34
2023-03-29T15:57:14.067Z,23.27
2023-03-29T15:58:13.152Z,23.29
2023-03-29T15:59:13.977Z,23.27
2023-03-29T16:00:13.976Z,23.27
2023-03-29T16:01:13.934Z,23.22
2023-03-29T16:02:12.933Z,23.25
2023-03-29T16:03:13.978Z,23.22
2023-03-29T16:04:14.049Z,23.21
2023-03-29T16:05:13.863Z,23.21
2023-03-29T16:06:13.902Z,23.19
2023-03-29T16:07:13.919Z,23.18
2023-03-29T16:08:13.888Z,23.17
2023-03-29T16:09:12.802Z,23.17
2023-03-29T16:10:13.937Z,23.15
2023-03-29T16:11:13.952Z,23.11
2023-03-29T16:12:13.952Z,23.17
2023-03-29T16:13:13.825Z,23.13
2023-03-29T16:14:13.812Z,23.14
2023-03-29T16:15:13.821Z,23.11
2023-03-29T16:16:13.814Z,23.08
2023-03-29T16:17:13.755Z,23.13
2023-03-29T16:18:17.364Z,23.10
2023-03-29T16:19:13.945Z,23.06
2023-03-29T16:20:14.320Z,23.08
2023-03-29T16:21:13.750Z,23.06
2023-03-29T16:22:12.763Z,23.03
2023-03-29T16:23:12.793Z,23.03
2023-03-29T16:24:15.525Z,23.03
2023-03-29T16:25:13.971Z,23.01
2023-03-29T16:26:13.952Z,23.01
2023-03-29T16:27:14.958Z,22.97
2023-03-29T16:28:13.130Z,23.01
2023-03-29T16:29:12.791Z,22.98
2023-03-29T16:30:14.277Z,22.98
2023-03-29T16:31:13.825Z,22.98
2023-03-29T16:32:12.845Z,22.93
2023-03-29T16:33:13.901Z,22.97
2023-03-29T16:34:13.872Z,22.91
2023-03-29T16:35:13.804Z,22.93
2023-03-29T16:36:13.938Z,22.93
2023-03-29T16:37:13.110Z,22.93
2023-03-29T16:38:12.917Z,22.91
2023-03-29T16:39:13.834Z,22.91
2023-03-29T16:40:13.930Z,22.87
2023-03-29T16:41:13.922Z,22.87
2023-03-29T16:42:13.845Z,22.86
2023-03-29T16:43:13.924Z,22.86
2023-03-29T16:44:13.939Z,22.87
2023-03-29T16:45:13.935Z,22.85
2023-03-29T16:46:13.995Z,22.82
2023-03-29T16:47:12.949Z,22.86
2023-03-29T16:48:13.995Z,22.80
2023-03-29T16:49:12.957Z,22.82
2023-03-29T16:50:14.075Z,22.82
2023-03-29T16:51:14.056Z,22.79
2023-03-29T16:52:13.045Z,22.80
2023-03-29T16:53:14.097Z,22.79
2023-03-29T16:54:14.093Z,22.77
2023-03-29T16:55:14.072Z,22.76
2023-03-29T16:56:14.106Z,22.73
2023-03-29T16:57:13.206Z,22.76
2023-03-29T16:58:14.163Z,22.73
2023-03-29T16:59:14.249Z,22.73
2023-03-29T17:00:14.200Z,22.72
2023-03-29T17:01:14.364Z,22.70
2023-03-29T17:02:14.255Z,22.69
2023-03-29T17:03:13.404Z,22.70